Tina-c — 2APY2 — position and weather

sailwx.info

Track history (hours):
 
Tides and Currents Weather Stations Pressure Air Temp Water Temp Dewpoint Dewpoint Depression Visibility Wind Speed Wind Dir Waves Ship Positions

Tina-c

Last reported at 2016-Apr-29 20:25 UTC. Time now 2016-Apr-30 15:03 UTC.
Position N 49°48' W 003°26'.

Length 99 m; draft 6.7 m.

Type: Cargo ship. MMSI: 235061987.

Date/timePositionNaut miles runAvg speedWind from/ knotsBaromVisibWave heightAir tempDewpointWater temp
2016-Apr-29 20:25N 49°48' W 003°26'910.6
2016-Apr-29 19:33N 49°53' W 003°14'1111.1
2016-Apr-29 18:33N 49°58' W 002°58'107 9.7
2016-Apr-29 07:32N 50°28' W 000°18'1010.7
2016-Apr-29 06:33N 50°31' W 000°02'1010.5
2016-Apr-29 05:33N 50°34' E 000°13'43 8.5
2016-Apr-29 00:33N 50°56' E 001°12'9 9.2
2016-Apr-28 23:33N 51°02' E 001°23'1010.4
2016-Apr-28 22:33N 51°09' E 001°35'10 9.9
2016-Apr-28 21:34N 51°18' E 001°37'10 9.8
2016-Apr-28 20:33N 51°27' E 001°28'1212.0
2016-Apr-28 19:33N 51°29' E 001°09'1312.7
2016-Apr-28 18:33N 51°29' E 000°49'1312.7
2016-Apr-28 17:33N 51°30' E 000°28'6 5.6
2016-Apr-28 16:33N 51°28' E 000°20'0 0.0
2016-Apr-28 15:34N 51°28' E 000°20'0 0.0
2016-Apr-28 14:33N 51°28' E 000°20'0 0.0
2016-Apr-28 13:33N 51°28' E 000°20'0 0.0
2016-Apr-28 12:34N 51°28' E 000°20'0 0.0
2016-Apr-28 11:34N 51°28' E 000°20'0 0.0
2016-Apr-28 10:33N 51°28' E 000°20'0 0.0
2016-Apr-28 09:33N 51°28' E 000°20'0 0.0
2016-Apr-28 08:34N 51°28' E 000°20'0 0.0
2016-Apr-28 07:34N 51°28' E 000°20'0 0.0
2016-Apr-28 06:34N 51°28' E 000°20'0 0.0
2016-Apr-28 05:33N 51°28' E 000°20'0 0.0
2016-Apr-28 04:34N 51°28' E 000°20'0 0.0
2016-Apr-28 03:33N 51°28' E 000°20'0 0.0
2016-Apr-28 02:34N 51°28' E 000°20'0 0.0
2016-Apr-28 01:33N 51°28' E 000°20'0 0.0
2016-Apr-28 00:33N 51°28' E 000°20'0 0.0
2016-Apr-27 23:34N 51°28' E 000°20'0 0.0
2016-Apr-27 22:33N 51°28' E 000°20'0 0.0
2016-Apr-27 21:34N 51°28' E 000°20'0 0.0
2016-Apr-27 20:33N 51°28' E 000°20'0 0.0
2016-Apr-27 19:34N 51°28' E 000°20'0 0.0
2016-Apr-27 18:33N 51°28' E 000°20'0 0.0
2016-Apr-27 17:33N 51°28' E 000°20'0 0.0
2016-Apr-27 16:34N 51°28' E 000°20'0 0.0
2016-Apr-27 15:34N 51°28' E 000°20'4 4.1
2016-Apr-27 14:33N 51°27' E 000°26'8 8.1
2016-Apr-27 13:33N 51°30' E 000°39'10 9.1
2016-Apr-27 12:27N 51°29' E 000°55'910.6
2016-Apr-27 11:33N 51°29' E 001°10'1111.4
2016-Apr-27 10:33N 51°26' E 001°27'1 1.1
2016-Apr-27 09:33N 51°25' E 001°27'0 0.0
2016-Apr-27 08:33N 51°25' E 001°27'0 0.0
2016-Apr-27 07:33N 51°25' E 001°27'0 0.0
2016-Apr-27 06:33N 51°25' E 001°27'0 0.0
2016-Apr-27 05:33N 51°25' E 001°27'0 0.0
2016-Apr-27 04:33N 51°25' E 001°27'0 0.0
2016-Apr-27 03:33N 51°25' E 001°27'4 4.0
2016-Apr-27 02:33N 51°28' E 001°31'1010.4
2016-Apr-27 01:33N 51°34' E 001°45'72 9.7
2016-Apr-26 18:10N 52°03' E 003°31'4 7.1
2016-Apr-26 17:33N 52°04' E 003°38'6 6.4
2016-Apr-26 16:33N 52°04' E 003°48'6 5.6
2016-Apr-26 15:33N 52°02' E 003°57'5 4.7
2016-Apr-26 14:33N 51°60' E 004°03'1110.6
2016-Apr-26 13:33N 51°54' E 004°17'6 5.8
2016-Apr-26 12:33N 51°54' E 004°27'0 0.0
2016-Apr-26 11:31N 51°54' E 004°27'0 0.0
2016-Apr-26 10:32N 51°54' E 004°27'0 0.0
2016-Apr-26 09:31N 51°54' E 004°27'0 0.0
2016-Apr-26 08:31N 51°54' E 004°27'0 0.0
2016-Apr-26 07:31N 51°54' E 004°27'0 0.0
2016-Apr-26 06:32N 51°54' E 004°27'0 0.0
2016-Apr-26 05:31N 51°54' E 004°27'0 0.0
2016-Apr-26 04:32N 51°54' E 004°27'0 0.0
2016-Apr-26 03:32N 51°54' E 004°27'0 0.0
2016-Apr-26 02:32N 51°54' E 004°27'0 0.0
2016-Apr-26 01:32N 51°54' E 004°27'0 0.0
2016-Apr-26 00:31N 51°54' E 004°27'0 0.0
2016-Apr-25 23:31N 51°54' E 004°27'0 0.0
2016-Apr-25 22:31N 51°54' E 004°27'0 0.0
2016-Apr-25 21:31N 51°54' E 004°27'0 0.0
2016-Apr-25 20:31N 51°54' E 004°27'0 0.0
2016-Apr-25 19:31N 51°54' E 004°27'0 0.0
2016-Apr-25 18:31N 51°54' E 004°27'0 0.0
2016-Apr-25 17:31N 51°54' E 004°27'0 0.0
2016-Apr-25 16:31N 51°54' E 004°27'0 0.0
2016-Apr-25 15:28N 51°54' E 004°27'0 0.0
2016-Apr-25 14:32N 51°54' E 004°27'0 0.0
2016-Apr-25 13:32N 51°54' E 004°27'0 0.0
2016-Apr-25 12:31N 51°54' E 004°27'0 0.0
2016-Apr-25 11:31N 51°54' E 004°27'0 0.0
2016-Apr-25 10:31N 51°54' E 004°27'0 0.0
2016-Apr-25 09:31N 51°54' E 004°27'0 0.0
2016-Apr-25 08:31N 51°54' E 004°27'0 0.0
2016-Apr-25 07:31N 51°54' E 004°27'0 0.0
2016-Apr-25 06:32N 51°54' E 004°27'0 0.0
2016-Apr-25 05:32N 51°54' E 004°27'0 0.0
2016-Apr-25 04:31N 51°54' E 004°27'4 4.4
2016-Apr-25 03:33N 51°54' E 004°20'1111.0
2016-Apr-25 02:33N 51°59' E 004°04'1010.2
2016-Apr-25 01:33N 51°60' E 003°48'63 8.7
2016-Apr-24 18:19N 51°52' E 002°06'810.9
2016-Apr-24 17:33N 51°49' E 001°54'1010.5
2016-Apr-24 16:33N 51°51' E 001°37'9 9.2
2016-Apr-24 15:34N 51°56' E 001°25'9 8.6
2016-Apr-24 14:34N 52°00' E 001°13'3 2.7
2016-Apr-24 13:31N 52°02' E 001°10'0 0.0
2016-Apr-24 12:25N 52°02' E 001°10'0 0.0
2016-Apr-24 11:28N 52°02' E 001°10'0 0.0
2016-Apr-24 10:31N 52°02' E 001°10'0 0.0
2016-Apr-24 09:31N 52°02' E 001°10'0 0.0
2016-Apr-24 08:25N 52°02' E 001°10'0 0.0
2016-Apr-24 07:31N 52°02' E 001°10'0 0.0
2016-Apr-24 06:31N 52°02' E 001°10'0 0.0
2016-Apr-24 05:31N 52°02' E 001°10'0 0.0
2016-Apr-24 01:28N 52°02' E 001°10'0 0.0
2016-Apr-23 23:22N 52°02' E 001°10'0 0.0
2016-Apr-23 22:31N 52°02' E 001°10'0 0.0
2016-Apr-23 16:22N 52°02' E 001°10'0 0.0
2016-Apr-23 15:31N 52°02' E 001°10'0 0.0
2016-Apr-23 14:28N 52°02' E 001°10'0 0.0
2016-Apr-23 13:31N 52°02' E 001°10'0 0.0
2016-Apr-23 12:28N 52°02' E 001°10'0 0.0
2016-Apr-23 11:32N 52°02' E 001°10'2 1.6
2016-Apr-23 10:33N 52°01' E 001°11'7 7.1
2016-Apr-23 09:33N 51°56' E 001°19'1110.6
2016-Apr-23 08:33N 51°59' E 001°35'1312.9
2016-Apr-23 07:33N 52°09' E 001°48'1313.2
2016-Apr-23 06:33N 52°22' E 001°52'1211.7
2016-Apr-23 05:33N 52°34' E 001°55'1010.2
2016-Apr-23 04:33N 52°44' E 001°55'9 9.2
2016-Apr-23 03:33N 52°51' E 001°46'9 8.8
2016-Apr-23 02:33N 52°57' E 001°34'9 8.9
2016-Apr-23 01:33N 53°03' E 001°24'10 9.7
2016-Apr-23 00:31N 53°11' E 001°13'10 9.9
2016-Apr-22 23:33N 53°18' E 001°03'1110.3
2016-Apr-22 22:32N 53°23' E 000°48'1111.1
2016-Apr-22 21:30N 53°27' E 000°30'1011.0
2016-Apr-22 20:33N 53°32' E 000°14'1312.7
2016-Apr-22 19:33N 53°37' W 000°06'1110.8
2016-Apr-22 18:34N 53°43' W 000°21'1 0.8
2016-Apr-22 17:28N 53°43' W 000°22'0 0.0
2016-Apr-22 16:31N 53°43' W 000°22'0 0.0
2016-Apr-22 15:28N 53°43' W 000°22'0 0.0
2016-Apr-22 14:31N 53°43' W 000°22'0 0.0
2016-Apr-22 13:31N 53°43' W 000°22'0 0.0
2016-Apr-22 12:31N 53°43' W 000°22'0 0.0
2016-Apr-22 11:31N 53°43' W 000°22'0 0.0
2016-Apr-22 10:31N 53°43' W 000°22'0 0.0
2016-Apr-22 09:31N 53°43' W 000°22'0 0.0
2016-Apr-22 08:31N 53°43' W 000°22'0 0.0
2016-Apr-22 07:31N 53°43' W 000°22'0 0.0
2016-Apr-22 06:31N 53°43' W 000°22'0 0.0
2016-Apr-22 05:31N 53°43' W 000°22'0 0.0
2016-Apr-22 04:25N 53°43' W 000°22'0 0.0
2016-Apr-22 03:31N 53°43' W 000°22'0 0.0
2016-Apr-22 02:31N 53°43' W 000°22'0 0.0
2016-Apr-22 01:31N 53°43' W 000°22'0 0.0
2016-Apr-22 00:31N 53°43' W 000°22'0 0.0
2016-Apr-21 23:31N 53°43' W 000°22'0 0.0
2016-Apr-21 22:31N 53°43' W 000°22'0 0.0
2016-Apr-21 21:31N 53°43' W 000°22'0 0.0
2016-Apr-21 20:31N 53°43' W 000°22'0 0.0
2016-Apr-21 19:31N 53°43' W 000°22'0 0.0
2016-Apr-21 18:31N 53°43' W 000°22'0 0.0
2016-Apr-21 17:31N 53°43' W 000°22'0 0.0
2016-Apr-21 16:31N 53°43' W 000°22'0 0.0
2016-Apr-21 15:31N 53°43' W 000°22'0 0.0
2016-Apr-21 14:31N 53°43' W 000°22'0 0.0
2016-Apr-21 13:31N 53°43' W 000°22'0 0.0
2016-Apr-21 12:25N 53°43' W 000°22'0 0.0
2016-Apr-21 11:31N 53°43' W 000°22'0 0.0
2016-Apr-21 10:31N 53°43' W 000°22'0 0.0
2016-Apr-21 09:31N 53°43' W 000°22'0 0.0
2016-Apr-21 08:31N 53°43' W 000°22'0 0.0
2016-Apr-21 07:31N 53°43' W 000°22'0 0.0
2016-Apr-21 06:31N 53°43' W 000°22'0 0.0
2016-Apr-21 05:31N 53°43' W 000°22'0 0.0
2016-Apr-21 04:31N 53°43' W 000°22'0 0.0
2016-Apr-21 03:31N 53°43' W 000°22'0 0.0
2016-Apr-21 02:31N 53°43' W 000°22'0 0.0
2016-Apr-21 01:28N 53°43' W 000°22'0 0.0
2016-Apr-21 00:31N 53°43' W 000°22'0 0.0
2016-Apr-20 23:31N 53°43' W 000°22'0 0.0
2016-Apr-20 22:31N 53°43' W 000°22'0 0.0
2016-Apr-20 21:31N 53°43' W 000°22'0 0.0
2016-Apr-20 20:31N 53°43' W 000°22'0 0.0
2016-Apr-20 19:31N 53°43' W 000°22'0 0.0
2016-Apr-20 18:31N 53°43' W 000°22'0 0.2
2016-Apr-20 17:33N 53°43' W 000°22'5 5.0
2016-Apr-20 16:34N 53°41' W 000°14'10 9.9
2016-Apr-20 15:34N 53°36' E 000°00'10 9.9
2016-Apr-20 14:33N 53°33' E 000°16'5 4.4
2016-Apr-20 13:27N 53°35' E 000°24'0 0.1
2016-Apr-20 12:30N 53°35' E 000°24'0 0.1
2016-Apr-20 11:33N 53°35' E 000°24'0 0.0
2016-Apr-20 10:33N 53°35' E 000°24'0 0.0
2016-Apr-20 09:06N 53°35' E 000°24'0 0.0
2016-Apr-20 08:33N 53°35' E 000°24'0 0.0
2016-Apr-20 07:30N 53°35' E 000°24'0 0.1
2016-Apr-20 06:33N 53°35' E 000°24'0 0.0
2016-Apr-20 05:18N 53°35' E 000°24'0 0.0
2016-Apr-20 04:21N 53°35' E 000°24'0 0.0
2016-Apr-20 03:33N 53°35' E 000°24'0 0.0
2016-Apr-20 02:21N 53°35' E 000°24'0 0.0
2016-Apr-20 01:33N 53°35' E 000°24'0 0.0
2016-Apr-20 00:33N 53°35' E 000°24'0 0.1
2016-Apr-19 23:24N 53°35' E 000°24'0 0.0
2016-Apr-19 22:33N 53°35' E 000°24'0 0.0
2016-Apr-19 21:33N 53°35' E 000°24'0 0.0
2016-Apr-19 20:33N 53°35' E 000°24'  
Track history (hours):
 
Tides and Currents Weather Stations Pressure Air Temp Water Temp Dewpoint Dewpoint Depression Visibility Wind Speed Wind Dir Waves Ship Positions

Tina-c

Last reported at 2016-Apr-29 20:25 UTC. Time now 2016-Apr-30 15:03 UTC.
Position N 49°48' W 003°26'.

Length 99 m; draft 6.7 m.

Type: Cargo ship. MMSI: 235061987.

Date/timePositionNaut miles runAvg speedWind from/ knotsBaromVisibWave heightAir tempDewpointWater temp
2016-Apr-29 20:25N 49°48' W 003°26'910.6
2016-Apr-29 19:33N 49°53' W 003°14'1111.1
2016-Apr-29 18:33N 49°58' W 002°58'107 9.7
2016-Apr-29 07:32N 50°28' W 000°18'1010.7
2016-Apr-29 06:33N 50°31' W 000°02'1010.5
2016-Apr-29 05:33N 50°34' E 000°13'43 8.5
2016-Apr-29 00:33N 50°56' E 001°12'9 9.2
2016-Apr-28 23:33N 51°02' E 001°23'1010.4
2016-Apr-28 22:33N 51°09' E 001°35'10 9.9
2016-Apr-28 21:34N 51°18' E 001°37'10 9.8
2016-Apr-28 20:33N 51°27' E 001°28'1212.0
2016-Apr-28 19:33N 51°29' E 001°09'1312.7
2016-Apr-28 18:33N 51°29' E 000°49'1312.7
2016-Apr-28 17:33N 51°30' E 000°28'6 5.6
2016-Apr-28 16:33N 51°28' E 000°20'0 0.0
2016-Apr-28 15:34N 51°28' E 000°20'0 0.0
2016-Apr-28 14:33N 51°28' E 000°20'0 0.0
2016-Apr-28 13:33N 51°28' E 000°20'0 0.0
2016-Apr-28 12:34N 51°28' E 000°20'0 0.0
2016-Apr-28 11:34N 51°28' E 000°20'0 0.0
2016-Apr-28 10:33N 51°28' E 000°20'0 0.0
2016-Apr-28 09:33N 51°28' E 000°20'0 0.0
2016-Apr-28 08:34N 51°28' E 000°20'0 0.0
2016-Apr-28 07:34N 51°28' E 000°20'0 0.0
2016-Apr-28 06:34N 51°28' E 000°20'0 0.0
2016-Apr-28 05:33N 51°28' E 000°20'0 0.0
2016-Apr-28 04:34N 51°28' E 000°20'0 0.0
2016-Apr-28 03:33N 51°28' E 000°20'0 0.0
2016-Apr-28 02:34N 51°28' E 000°20'0 0.0
2016-Apr-28 01:33N 51°28' E 000°20'0 0.0
2016-Apr-28 00:33N 51°28' E 000°20'0 0.0
2016-Apr-27 23:34N 51°28' E 000°20'0 0.0
2016-Apr-27 22:33N 51°28' E 000°20'0 0.0
2016-Apr-27 21:34N 51°28' E 000°20'0 0.0
2016-Apr-27 20:33N 51°28' E 000°20'0 0.0
2016-Apr-27 19:34N 51°28' E 000°20'0 0.0
2016-Apr-27 18:33N 51°28' E 000°20'0 0.0
2016-Apr-27 17:33N 51°28' E 000°20'0 0.0
2016-Apr-27 16:34N 51°28' E 000°20'0 0.0
2016-Apr-27 15:34N 51°28' E 000°20'4 4.1
2016-Apr-27 14:33N 51°27' E 000°26'8 8.1
2016-Apr-27 13:33N 51°30' E 000°39'10 9.1
2016-Apr-27 12:27N 51°29' E 000°55'910.6
2016-Apr-27 11:33N 51°29' E 001°10'1111.4
2016-Apr-27 10:33N 51°26' E 001°27'1 1.1
2016-Apr-27 09:33N 51°25' E 001°27'0 0.0
2016-Apr-27 08:33N 51°25' E 001°27'0 0.0
2016-Apr-27 07:33N 51°25' E 001°27'0 0.0
2016-Apr-27 06:33N 51°25' E 001°27'0 0.0
2016-Apr-27 05:33N 51°25' E 001°27'0 0.0
2016-Apr-27 04:33N 51°25' E 001°27'0 0.0
2016-Apr-27 03:33N 51°25' E 001°27'4 4.0
2016-Apr-27 02:33N 51°28' E 001°31'1010.4
2016-Apr-27 01:33N 51°34' E 001°45'72 9.7
2016-Apr-26 18:10N 52°03' E 003°31'4 7.1
2016-Apr-26 17:33N 52°04' E 003°38'6 6.4
2016-Apr-26 16:33N 52°04' E 003°48'6 5.6
2016-Apr-26 15:33N 52°02' E 003°57'5 4.7
2016-Apr-26 14:33N 51°60' E 004°03'1110.6
2016-Apr-26 13:33N 51°54' E 004°17'6 5.8
2016-Apr-26 12:33N 51°54' E 004°27'0 0.0
2016-Apr-26 11:31N 51°54' E 004°27'0 0.0
2016-Apr-26 10:32N 51°54' E 004°27'0 0.0
2016-Apr-26 09:31N 51°54' E 004°27'0 0.0
2016-Apr-26 08:31N 51°54' E 004°27'0 0.0
2016-Apr-26 07:31N 51°54' E 004°27'0 0.0
2016-Apr-26 06:32N 51°54' E 004°27'0 0.0
2016-Apr-26 05:31N 51°54' E 004°27'0 0.0
2016-Apr-26 04:32N 51°54' E 004°27'0 0.0
2016-Apr-26 03:32N 51°54' E 004°27'0 0.0
2016-Apr-26 02:32N 51°54' E 004°27'0 0.0
2016-Apr-26 01:32N 51°54' E 004°27'0 0.0
2016-Apr-26 00:31N 51°54' E 004°27'0 0.0
2016-Apr-25 23:31N 51°54' E 004°27'0 0.0
2016-Apr-25 22:31N 51°54' E 004°27'0 0.0
2016-Apr-25 21:31N 51°54' E 004°27'0 0.0
2016-Apr-25 20:31N 51°54' E 004°27'0 0.0
2016-Apr-25 19:31N 51°54' E 004°27'0 0.0
2016-Apr-25 18:31N 51°54' E 004°27'0 0.0
2016-Apr-25 17:31N 51°54' E 004°27'0 0.0
2016-Apr-25 16:31N 51°54' E 004°27'0 0.0
2016-Apr-25 15:28N 51°54' E 004°27'0 0.0
2016-Apr-25 14:32N 51°54' E 004°27'0 0.0
2016-Apr-25 13:32N 51°54' E 004°27'0 0.0
2016-Apr-25 12:31N 51°54' E 004°27'0 0.0
2016-Apr-25 11:31N 51°54' E 004°27'0 0.0
2016-Apr-25 10:31N 51°54' E 004°27'0 0.0
2016-Apr-25 09:31N 51°54' E 004°27'0 0.0
2016-Apr-25 08:31N 51°54' E 004°27'0 0.0
2016-Apr-25 07:31N 51°54' E 004°27'0 0.0
2016-Apr-25 06:32N 51°54' E 004°27'0 0.0
2016-Apr-25 05:32N 51°54' E 004°27'0 0.0
2016-Apr-25 04:31N 51°54' E 004°27'4 4.4
2016-Apr-25 03:33N 51°54' E 004°20'1111.0
2016-Apr-25 02:33N 51°59' E 004°04'1010.2
2016-Apr-25 01:33N 51°60' E 003°48'63 8.7
2016-Apr-24 18:19N 51°52' E 002°06'810.9
2016-Apr-24 17:33N 51°49' E 001°54'1010.5
2016-Apr-24 16:33N 51°51' E 001°37'9 9.2
2016-Apr-24 15:34N 51°56' E 001°25'9 8.6
2016-Apr-24 14:34N 52°00' E 001°13'3 2.7
2016-Apr-24 13:31N 52°02' E 001°10'0 0.0
2016-Apr-24 12:25N 52°02' E 001°10'0 0.0
2016-Apr-24 11:28N 52°02' E 001°10'0 0.0
2016-Apr-24 10:31N 52°02' E 001°10'0 0.0
2016-Apr-24 09:31N 52°02' E 001°10'0 0.0
2016-Apr-24 08:25N 52°02' E 001°10'0 0.0
2016-Apr-24 07:31N 52°02' E 001°10'0 0.0
2016-Apr-24 06:31N 52°02' E 001°10'0 0.0
2016-Apr-24 05:31N 52°02' E 001°10'0 0.0
2016-Apr-24 01:28N 52°02' E 001°10'0 0.0
2016-Apr-23 23:22N 52°02' E 001°10'0 0.0
2016-Apr-23 22:31N 52°02' E 001°10'0 0.0
2016-Apr-23 16:22N 52°02' E 001°10'0 0.0
2016-Apr-23 15:31N 52°02' E 001°10'0 0.0
2016-Apr-23 14:28N 52°02' E 001°10'0 0.0
2016-Apr-23 13:31N 52°02' E 001°10'0 0.0
2016-Apr-23 12:28N 52°02' E 001°10'0 0.0
2016-Apr-23 11:32N 52°02' E 001°10'2 1.6
2016-Apr-23 10:33N 52°01' E 001°11'7 7.1
2016-Apr-23 09:33N 51°56' E 001°19'1110.6
2016-Apr-23 08:33N 51°59' E 001°35'1312.9
2016-Apr-23 07:33N 52°09' E 001°48'1313.2
2016-Apr-23 06:33N 52°22' E 001°52'1211.7
2016-Apr-23 05:33N 52°34' E 001°55'1010.2
2016-Apr-23 04:33N 52°44' E 001°55'9 9.2
2016-Apr-23 03:33N 52°51' E 001°46'9 8.8
2016-Apr-23 02:33N 52°57' E 001°34'9 8.9
2016-Apr-23 01:33N 53°03' E 001°24'10 9.7
2016-Apr-23 00:31N 53°11' E 001°13'10 9.9
2016-Apr-22 23:33N 53°18' E 001°03'1110.3
2016-Apr-22 22:32N 53°23' E 000°48'1111.1
2016-Apr-22 21:30N 53°27' E 000°30'1011.0
2016-Apr-22 20:33N 53°32' E 000°14'1312.7
2016-Apr-22 19:33N 53°37' W 000°06'1110.8
2016-Apr-22 18:34N 53°43' W 000°21'1 0.8
2016-Apr-22 17:28N 53°43' W 000°22'0 0.0
2016-Apr-22 16:31N 53°43' W 000°22'0 0.0
2016-Apr-22 15:28N 53°43' W 000°22'0 0.0
2016-Apr-22 14:31N 53°43' W 000°22'0 0.0
2016-Apr-22 13:31N 53°43' W 000°22'0 0.0
2016-Apr-22 12:31N 53°43' W 000°22'0 0.0
2016-Apr-22 11:31N 53°43' W 000°22'0 0.0
2016-Apr-22 10:31N 53°43' W 000°22'0 0.0
2016-Apr-22 09:31N 53°43' W 000°22'0 0.0
2016-Apr-22 08:31N 53°43' W 000°22'0 0.0
2016-Apr-22 07:31N 53°43' W 000°22'0 0.0
2016-Apr-22 06:31N 53°43' W 000°22'0 0.0
2016-Apr-22 05:31N 53°43' W 000°22'0 0.0
2016-Apr-22 04:25N 53°43' W 000°22'0 0.0
2016-Apr-22 03:31N 53°43' W 000°22'0 0.0
2016-Apr-22 02:31N 53°43' W 000°22'0 0.0
2016-Apr-22 01:31N 53°43' W 000°22'0 0.0
2016-Apr-22 00:31N 53°43' W 000°22'0 0.0
2016-Apr-21 23:31N 53°43' W 000°22'0 0.0
2016-Apr-21 22:31N 53°43' W 000°22'0 0.0
2016-Apr-21 21:31N 53°43' W 000°22'0 0.0
2016-Apr-21 20:31N 53°43' W 000°22'0 0.0
2016-Apr-21 19:31N 53°43' W 000°22'0 0.0
2016-Apr-21 18:31N 53°43' W 000°22'0 0.0
2016-Apr-21 17:31N 53°43' W 000°22'0 0.0
2016-Apr-21 16:31N 53°43' W 000°22'0 0.0
2016-Apr-21 15:31N 53°43' W 000°22'0 0.0
2016-Apr-21 14:31N 53°43' W 000°22'0 0.0
2016-Apr-21 13:31N 53°43' W 000°22'0 0.0
2016-Apr-21 12:25N 53°43' W 000°22'0 0.0
2016-Apr-21 11:31N 53°43' W 000°22'0 0.0
2016-Apr-21 10:31N 53°43' W 000°22'0 0.0
2016-Apr-21 09:31N 53°43' W 000°22'0 0.0
2016-Apr-21 08:31N 53°43' W 000°22'0 0.0
2016-Apr-21 07:31N 53°43' W 000°22'0 0.0
2016-Apr-21 06:31N 53°43' W 000°22'0 0.0
2016-Apr-21 05:31N 53°43' W 000°22'0 0.0
2016-Apr-21 04:31N 53°43' W 000°22'0 0.0
2016-Apr-21 03:31N 53°43' W 000°22'0 0.0
2016-Apr-21 02:31N 53°43' W 000°22'0 0.0
2016-Apr-21 01:28N 53°43' W 000°22'0 0.0
2016-Apr-21 00:31N 53°43' W 000°22'0 0.0
2016-Apr-20 23:31N 53°43' W 000°22'0 0.0
2016-Apr-20 22:31N 53°43' W 000°22'0 0.0
2016-Apr-20 21:31N 53°43' W 000°22'0 0.0
2016-Apr-20 20:31N 53°43' W 000°22'0 0.0
2016-Apr-20 19:31N 53°43' W 000°22'0 0.0
2016-Apr-20 18:31N 53°43' W 000°22'0 0.2
2016-Apr-20 17:33N 53°43' W 000°22'5 5.0
2016-Apr-20 16:34N 53°41' W 000°14'10 9.9
2016-Apr-20 15:34N 53°36' E 000°00'10 9.9
2016-Apr-20 14:33N 53°33' E 000°16'5 4.4
2016-Apr-20 13:27N 53°35' E 000°24'0 0.1
2016-Apr-20 12:30N 53°35' E 000°24'0 0.1
2016-Apr-20 11:33N 53°35' E 000°24'0 0.0
2016-Apr-20 10:33N 53°35' E 000°24'0 0.0
2016-Apr-20 09:06N 53°35' E 000°24'0 0.0
2016-Apr-20 08:33N 53°35' E 000°24'0 0.0
2016-Apr-20 07:30N 53°35' E 000°24'0 0.1
2016-Apr-20 06:33N 53°35' E 000°24'0 0.0
2016-Apr-20 05:18N 53°35' E 000°24'0 0.0
2016-Apr-20 04:21N 53°35' E 000°24'0 0.0
2016-Apr-20 03:33N 53°35' E 000°24'0 0.0
2016-Apr-20 02:21N 53°35' E 000°24'0 0.0
2016-Apr-20 01:33N 53°35' E 000°24'0 0.0
2016-Apr-20 00:33N 53°35' E 000°24'0 0.1
2016-Apr-19 23:24N 53°35' E 000°24'0 0.0
2016-Apr-19 22:33N 53°35' E 000°24'0 0.0
2016-Apr-19 21:33N 53°35' E 000°24'0 0.0
2016-Apr-19 20:33N 53°35' E 000°24'  

Dump ship's entire track history